createdAt,value
2022-11-12T00:00:24.243Z,11.20
2022-11-12T00:03:10.187Z,11.33
2022-11-12T00:05:55.890Z,11.20
2022-11-12T00:08:41.572Z,11.23
2022-11-12T00:11:27.343Z,11.45
2022-11-12T00:14:13.014Z,11.45
2022-11-12T00:16:59.836Z,11.57
2022-11-12T00:19:45.711Z,11.56
2022-11-12T00:22:31.477Z,11.33
2022-11-12T00:25:17.413Z,11.30
2022-11-12T00:28:07.464Z,11.41
2022-11-12T00:30:53.136Z,11.17
2022-11-12T00:33:40.578Z,11.49
2022-11-12T00:36:26.445Z,11.29
2022-11-12T00:39:12.094Z,10.67
2022-11-12T00:41:57.839Z,10.92
2022-11-12T00:44:43.538Z,10.97
2022-11-12T00:47:29.515Z,10.74
2022-11-12T00:50:16.211Z,11.10
2022-11-12T00:53:01.958Z,11.08
2022-11-12T00:55:47.753Z,11.10
2022-11-12T00:58:34.942Z,11.10
2022-11-12T01:01:21.059Z,10.82
2022-11-12T01:04:07.166Z,10.75
2022-11-12T01:06:52.808Z,10.67
2022-11-12T01:09:39.761Z,10.85
2022-11-12T01:12:25.870Z,11.36
2022-11-12T01:15:11.519Z,11.46
2022-11-12T01:17:57.124Z,10.98
2022-11-12T01:20:42.766Z,11.38
2022-11-12T01:23:28.459Z,11.56
2022-11-12T01:26:16.171Z,11.29
2022-11-12T01:29:01.817Z,10.77
2022-11-12T01:31:47.590Z,11.17
2022-11-12T01:34:33.576Z,11.04
2022-11-12T01:37:19.303Z,10.88
2022-11-12T01:40:05.458Z,10.06
2022-11-12T01:42:52.540Z,10.21
2022-11-12T01:45:40.207Z,10.19
2022-11-12T01:48:34.161Z,9.82
2022-11-12T01:51:21.277Z,10.00
2022-11-12T01:54:08.612Z,9.91
2022-11-12T01:56:54.539Z,10.52
2022-11-12T01:59:44.542Z,11.04
2022-11-12T02:02:31.628Z,11.18
2022-11-12T02:05:17.442Z,10.49
2022-11-12T02:08:03.569Z,10.98
2022-11-12T02:10:50.232Z,11.12
2022-11-12T02:13:54.588Z,11.33
2022-11-12T02:16:41.481Z,11.28
2022-11-12T02:19:27.423Z,11.34
2022-11-12T02:22:13.145Z,11.27
2022-11-12T02:24:58.815Z,11.46
2022-11-12T02:27:44.677Z,11.23
2022-11-12T02:30:35.560Z,11.23
2022-11-12T02:33:21.501Z,10.58
2022-11-12T02:36:07.330Z,10.04
2022-11-12T02:38:53.079Z,10.43
2022-11-12T02:41:38.586Z,10.58
2022-11-12T02:44:24.260Z,10.67
2022-11-12T02:47:09.940Z,10.52
2022-11-12T02:49:55.597Z,10.65
2022-11-12T02:52:41.311Z,10.78
2022-11-12T02:55:27.035Z,10.71
2022-11-12T02:58:12.756Z,10.55
2022-11-12T03:00:58.473Z,11.06
2022-11-12T03:03:43.992Z,10.95
2022-11-12T03:06:29.642Z,11.06
2022-11-12T03:09:15.275Z,11.02
2022-11-12T03:12:01.136Z,11.19
2022-11-12T03:14:46.955Z,11.01
2022-11-12T03:17:34.655Z,11.17
2022-11-12T03:20:20.584Z,11.15
2022-11-12T03:23:08.157Z,11.21
2022-11-12T03:25:53.765Z,11.30
2022-11-12T03:28:39.348Z,11.02
2022-11-12T03:31:25.072Z,11.19
2022-11-12T03:34:11.168Z,11.25
2022-11-12T03:36:57.080Z,11.05
2022-11-12T03:39:42.817Z,11.21
2022-11-12T03:42:28.578Z,11.28
2022-11-12T03:45:14.847Z,11.04
2022-11-12T03:48:00.425Z,10.85
2022-11-12T03:50:46.459Z,10.62
2022-11-12T03:53:32.168Z,10.71
2022-11-12T03:56:17.952Z,10.65
2022-11-12T03:59:03.633Z,10.56
2022-11-12T04:01:49.300Z,10.72
2022-11-12T04:04:54.126Z,10.73
2022-11-12T04:07:59.116Z,10.64
2022-11-12T04:10:45.036Z,10.74
2022-11-12T04:13:30.786Z,10.43
2022-11-12T04:16:37.412Z,10.55
2022-11-12T04:19:42.245Z,10.53
2022-11-12T04:22:28.187Z,10.24
2022-11-12T04:25:32.829Z,10.36
2022-11-12T04:28:18.915Z,10.41
2022-11-12T04:31:04.520Z,10.11
2022-11-12T04:33:50.187Z,10.38
2022-11-12T04:36:35.943Z,10.30
2022-11-12T04:39:21.509Z,10.24
2022-11-12T04:42:27.623Z,10.09
2022-11-12T04:45:13.585Z,10.13
2022-11-12T04:47:59.339Z,10.22
2022-11-12T04:50:45.785Z,10.16
2022-11-12T04:53:31.760Z,10.00
2022-11-12T04:56:17.357Z,9.86
2022-11-12T04:59:03.084Z,10.13
2022-11-12T05:01:48.683Z,10.11
2022-11-12T05:04:34.262Z,9.66
2022-11-12T05:07:20.290Z,9.83
2022-11-12T05:10:06.647Z,9.74
2022-11-12T05:12:52.432Z,9.72
2022-11-12T05:15:38.167Z,10.17
2022-11-12T05:18:24.042Z,9.61
2022-11-12T05:21:28.779Z,9.58
2022-11-12T05:24:34.004Z,9.80
2022-11-12T05:27:20.969Z,9.78
2022-11-12T05:31:20.355Z,9.97
2022-11-12T05:34:06.516Z,9.97
2022-11-12T05:36:52.404Z,9.55
2022-11-12T05:39:37.943Z,9.18
2022-11-12T05:42:23.780Z,9.66
2022-11-12T05:45:09.589Z,9.63
2022-11-12T05:47:55.268Z,9.61
2022-11-12T05:50:58.581Z,9.22
2022-11-12T05:53:46.739Z,9.27
2022-11-12T05:56:32.473Z,9.64
2022-11-12T05:59:18.266Z,9.36
2022-11-12T06:02:03.928Z,9.46
2022-11-12T06:04:50.138Z,9.53
2022-11-12T06:07:36.051Z,9.86
2022-11-12T06:10:21.576Z,9.49
2022-11-12T06:13:07.388Z,9.40
2022-11-12T06:15:53.502Z,9.11
2022-11-12T06:18:39.410Z,9.70
2022-11-12T06:21:27.559Z,10.00
2022-11-12T06:24:13.227Z,9.85
2022-11-12T06:26:59.103Z,9.49
2022-11-12T06:29:44.800Z,9.72
2022-11-12T06:32:30.475Z,9.73
2022-11-12T06:35:16.605Z,9.91
2022-11-12T06:38:02.463Z,9.72
2022-11-12T06:40:48.220Z,9.74
2022-11-12T06:43:34.224Z,9.93
2022-11-12T06:46:20.155Z,9.95
2022-11-12T06:49:06.226Z,10.02
2022-11-12T06:51:52.028Z,10.16
2022-11-12T06:54:37.615Z,10.41
2022-11-12T06:57:23.348Z,10.25
2022-11-12T07:00:11.716Z,10.41
2022-11-12T07:02:57.534Z,9.82
2022-11-12T07:05:43.875Z,9.85
2022-11-12T07:08:29.812Z,9.96
2022-11-12T07:11:16.326Z,10.23
2022-11-12T07:14:02.206Z,10.32
2022-11-12T07:16:47.826Z,10.54
2022-11-12T07:19:33.626Z,10.43
2022-11-12T07:22:19.275Z,10.37
2022-11-12T07:25:05.423Z,10.51
2022-11-12T07:27:52.689Z,10.27
2022-11-12T07:30:38.296Z,10.49
2022-11-12T07:33:24.232Z,10.46
2022-11-12T07:36:11.987Z,10.63
2022-11-12T07:38:58.060Z,10.83
2022-11-12T07:41:43.850Z,10.96
2022-11-12T07:44:29.510Z,11.23
2022-11-12T07:47:15.164Z,10.98
2022-11-12T07:50:00.941Z,11.31
2022-11-12T07:52:46.485Z,11.73
2022-11-12T07:55:32.144Z,12.05
2022-11-12T07:58:17.933Z,12.13
2022-11-12T08:01:28.376Z,12.10
2022-11-12T08:04:14.117Z,12.23
2022-11-12T08:06:59.894Z,12.37
2022-11-12T08:09:46.060Z,12.57
2022-11-12T08:12:31.573Z,12.89
2022-11-12T08:15:17.340Z,12.79
2022-11-12T08:18:03.086Z,11.89
2022-11-12T08:20:48.617Z,12.27
2022-11-12T08:23:34.480Z,12.67
2022-11-12T08:26:20.256Z,12.87
2022-11-12T08:29:08.500Z,13.07
2022-11-12T08:31:54.933Z,13.36
2022-11-12T08:34:41.446Z,11.99
2022-11-12T08:37:27.273Z,11.99
2022-11-12T08:40:13.144Z,12.31
2022-11-12T08:43:06.137Z,12.30
2022-11-12T08:45:52.023Z,11.66
2022-11-12T08:48:39.925Z,11.11
2022-11-12T08:51:25.756Z,11.65
2022-11-12T08:54:11.343Z,11.68
2022-11-12T08:56:57.031Z,11.58
2022-11-12T08:59:42.801Z,12.38
2022-11-12T09:02:28.441Z,12.69
2022-11-12T09:05:14.180Z,12.20
2022-11-12T09:08:10.493Z,12.31
2022-11-12T09:10:57.784Z,12.29
2022-11-12T09:13:43.600Z,11.94
2022-11-12T09:16:29.254Z,11.77
2022-11-12T09:19:15.086Z,11.81
2022-11-12T09:22:00.711Z,11.93
2022-11-12T09:24:46.348Z,11.43
2022-11-12T09:27:31.973Z,12.28
2022-11-12T09:30:17.739Z,11.78
2022-11-12T09:33:03.471Z,11.30
2022-11-12T09:35:49.255Z,11.99
2022-11-12T09:38:35.100Z,12.26
2022-11-12T09:41:24.215Z,11.73
2022-11-12T09:44:17.488Z,11.49
2022-11-12T09:47:12.543Z,12.46
2022-11-12T09:50:01.401Z,12.16
2022-11-12T09:52:48.363Z,12.51
2022-11-12T09:55:46.008Z,12.47
2022-11-12T09:58:31.973Z,12.59
2022-11-12T10:01:39.142Z,12.55
2022-11-12T10:04:46.990Z,13.07
2022-11-12T10:07:40.550Z,13.67
2022-11-12T10:10:42.169Z,13.22
2022-11-12T10:13:59.073Z,13.48
2022-11-12T10:17:08.740Z,13.11
2022-11-12T10:20:50.273Z,14.07
2022-11-12T10:23:46.203Z,14.11
2022-11-12T10:26:31.965Z,14.28
2022-11-12T10:29:40.053Z,13.63
2022-11-12T10:32:25.846Z,13.27
2022-11-12T10:35:13.244Z,13.53
2022-11-12T10:38:04.357Z,12.99
2022-11-12T10:40:50.089Z,13.24
2022-11-12T10:43:36.152Z,13.14
2022-11-12T10:46:23.660Z,13.68
2022-11-12T10:49:15.942Z,13.58
2022-11-12T10:52:01.858Z,13.15
2022-11-12T10:54:52.351Z,12.68
2022-11-12T10:57:40.720Z,13.04
2022-11-12T11:00:26.653Z,13.77
2022-11-12T11:03:17.014Z,13.94
2022-11-12T11:06:07.772Z,13.89
2022-11-12T11:08:54.799Z,13.51
2022-11-12T11:11:54.051Z,13.12
2022-11-12T11:14:40.687Z,13.42
2022-11-12T11:17:26.523Z,13.60
2022-11-12T11:20:28.907Z,13.79
2022-11-12T11:23:46.031Z,13.28
2022-11-12T11:26:49.088Z,13.28
2022-11-12T11:29:37.992Z,13.87
2022-11-12T11:32:51.595Z,14.30
2022-11-12T11:35:43.311Z,14.45
2022-11-12T11:38:35.948Z,14.10
2022-11-12T11:41:30.442Z,14.28
2022-11-12T11:44:22.194Z,14.16
2022-11-12T11:47:13.248Z,14.55
2022-11-12T11:50:27.637Z,14.53
2022-11-12T11:53:20.886Z,15.00
2022-11-12T11:56:13.126Z,15.07
2022-11-12T11:59:14.121Z,15.28
2022-11-12T12:02:05.428Z,14.87
2022-11-12T12:05:01.003Z,14.12
2022-11-12T12:07:59.615Z,14.16
2022-11-12T12:11:07.373Z,14.57
2022-11-12T12:14:06.172Z,14.38
2022-11-12T12:17:19.237Z,14.50
2022-11-12T12:20:35.042Z,15.14
2022-11-12T12:23:33.792Z,15.02
2022-11-12T12:26:27.797Z,15.25
2022-11-12T12:29:25.809Z,15.53
2022-11-12T12:32:17.468Z,15.53
2022-11-12T12:35:33.135Z,14.89
2022-11-12T12:38:27.418Z,14.56
2022-11-12T12:41:34.951Z,15.42
2022-11-12T12:44:20.600Z,15.15
2022-11-12T12:47:06.395Z,15.56
2022-11-12T12:49:52.107Z,15.77
2022-11-12T12:53:15.133Z,16.06
2022-11-12T12:56:05.787Z,15.64
2022-11-12T12:58:51.798Z,15.67
2022-11-12T13:01:38.014Z,15.67
2022-11-12T13:04:57.884Z,15.59
2022-11-12T13:07:45.255Z,15.68
2022-11-12T13:10:37.129Z,15.98
2022-11-12T13:13:32.137Z,15.24
2022-11-12T13:16:51.087Z,14.91
2022-11-12T13:19:58.197Z,15.16
2022-11-12T13:22:43.880Z,14.63
2022-11-12T13:25:31.041Z,15.63
2022-11-12T13:28:17.112Z,15.63
2022-11-12T13:31:03.417Z,15.71
2022-11-12T13:33:49.049Z,15.80
2022-11-12T13:36:35.041Z,15.74
2022-11-12T13:39:20.537Z,15.89
2022-11-12T13:42:32.167Z,15.14
2022-11-12T13:45:22.227Z,15.39
2022-11-12T13:48:08.960Z,15.80
2022-11-12T13:50:57.295Z,15.82
2022-11-12T13:53:43.253Z,15.26
2022-11-12T13:56:33.607Z,15.67
2022-11-12T13:59:24.147Z,15.70
2022-11-12T14:02:26.476Z,16.03
2022-11-12T14:05:16.982Z,15.89
2022-11-12T14:08:14.982Z,16.01
2022-11-12T14:11:07.767Z,15.99
2022-11-12T14:14:01.833Z,16.02
2022-11-12T14:17:22.125Z,16.07
2022-11-12T14:20:07.956Z,15.83
2022-11-12T14:22:54.474Z,15.77
2022-11-12T14:25:50.802Z,15.85
2022-11-12T14:28:36.894Z,16.04
2022-11-12T14:31:24.624Z,15.60
2022-11-12T14:34:26.981Z,15.42
2022-11-12T14:37:31.009Z,15.70
2022-11-12T14:40:20.258Z,15.54
2022-11-12T14:43:06.180Z,15.20
2022-11-12T14:45:52.784Z,15.38
2022-11-12T14:48:48.287Z,15.49
2022-11-12T14:51:38.768Z,15.30
2022-11-12T14:54:28.951Z,15.54
2022-11-12T14:57:19.057Z,15.43
2022-11-12T15:00:32.902Z,15.02
2022-11-12T15:03:21.015Z,15.04
2022-11-12T15:06:06.544Z,15.04
2022-11-12T15:08:58.877Z,15.01
2022-11-12T15:11:47.737Z,15.00
2022-11-12T15:14:33.657Z,14.92
2022-11-12T15:17:27.191Z,15.16
2022-11-12T15:20:14.424Z,15.01
2022-11-12T15:23:00.179Z,15.00
2022-11-12T15:25:46.281Z,14.95
2022-11-12T15:28:32.190Z,14.91
2022-11-12T15:31:20.194Z,14.81
2022-11-12T15:34:28.884Z,14.81
2022-11-12T15:37:17.249Z,14.60
2022-11-12T15:40:07.070Z,14.69
2022-11-12T15:42:52.798Z,14.66
2022-11-12T15:45:38.720Z,14.60
2022-11-12T15:48:24.850Z,14.55
2022-11-12T15:51:10.884Z,14.65
2022-11-12T15:53:56.826Z,14.43
2022-11-12T15:56:43.086Z,14.63
2022-11-12T15:59:28.831Z,14.39
2022-11-12T16:02:15.673Z,14.28
2022-11-12T16:05:01.491Z,14.31
2022-11-12T16:07:47.630Z,14.28
2022-11-12T16:10:33.525Z,14.29
2022-11-12T16:13:29.133Z,14.46
2022-11-12T16:16:15.566Z,14.46
2022-11-12T16:19:01.390Z,14.25
2022-11-12T16:21:46.898Z,14.44
2022-11-12T16:24:32.615Z,14.26
2022-11-12T16:27:20.454Z,14.19
2022-11-12T16:30:12.857Z,14.13
2022-11-12T16:32:58.846Z,14.11
2022-11-12T16:35:44.687Z,14.30
2022-11-12T16:38:30.273Z,14.41
2022-11-12T16:41:16.341Z,14.20
2022-11-12T16:44:02.101Z,14.22
2022-11-12T16:46:47.805Z,14.25
2022-11-12T16:49:38.408Z,13.99
2022-11-12T16:52:25.892Z,13.97
2022-11-12T16:55:11.596Z,14.00
2022-11-12T16:57:57.249Z,14.01
2022-11-12T17:00:44.512Z,13.86
2022-11-12T17:03:30.449Z,13.90
2022-11-12T17:06:16.381Z,13.93
2022-11-12T17:09:03.882Z,14.06
2022-11-12T17:11:49.565Z,13.88
2022-11-12T17:14:35.694Z,13.85
2022-11-12T17:17:21.509Z,14.00
2022-11-12T17:20:07.456Z,14.06
2022-11-12T17:22:53.062Z,13.89
2022-11-12T17:25:38.728Z,13.96
2022-11-12T17:28:24.525Z,13.85
2022-11-12T17:31:15.791Z,13.79
2022-11-12T17:34:04.440Z,13.76
2022-11-12T17:36:50.204Z,13.67
2022-11-12T17:39:35.894Z,13.68
2022-11-12T17:42:21.704Z,13.93
2022-11-12T17:45:07.767Z,13.77
2022-11-12T17:47:53.862Z,13.60
2022-11-12T17:50:39.611Z,13.52
2022-11-12T17:53:25.606Z,13.44
2022-11-12T17:56:12.448Z,13.34
2022-11-12T17:58:58.049Z,13.41
2022-11-12T18:01:43.922Z,13.24
2022-11-12T18:04:31.147Z,13.05
2022-11-12T18:07:16.948Z,13.06
2022-11-12T18:10:02.615Z,13.10
2022-11-12T18:12:48.383Z,13.26
2022-11-12T18:15:34.141Z,13.23
2022-11-12T18:18:19.977Z,13.15
2022-11-12T18:21:05.645Z,13.18
2022-11-12T18:23:51.396Z,13.15
2022-11-12T18:26:37.054Z,13.04
2022-11-12T18:29:22.799Z,13.08
2022-11-12T18:32:08.551Z,13.02
2022-11-12T18:34:54.360Z,13.17
2022-11-12T18:37:40.218Z,13.16
2022-11-12T18:40:26.029Z,13.08
2022-11-12T18:43:11.659Z,13.14
2022-11-12T18:46:00.424Z,12.97
2022-11-12T18:48:47.343Z,13.00
2022-11-12T18:51:33.029Z,13.10
2022-11-12T18:54:18.743Z,13.12
2022-11-12T18:57:04.397Z,13.13
2022-11-12T18:59:52.647Z,13.12
2022-11-12T19:02:38.780Z,13.10
2022-11-12T19:05:24.543Z,13.13
2022-11-12T19:08:10.396Z,12.91
2022-11-12T19:11:21.741Z,12.89
2022-11-12T19:14:07.767Z,13.02
2022-11-12T19:16:53.670Z,13.11
2022-11-12T19:19:39.565Z,13.32
2022-11-12T19:22:25.305Z,13.21
2022-11-12T19:25:10.902Z,13.19
2022-11-12T19:27:56.440Z,13.33
2022-11-12T19:30:42.177Z,13.02
2022-11-12T19:33:27.808Z,13.11
2022-11-12T19:36:21.933Z,12.75
2022-11-12T19:39:07.980Z,12.83
2022-11-12T19:41:53.557Z,13.19
2022-11-12T19:44:39.112Z,12.70
2022-11-12T19:47:24.592Z,12.55
2022-11-12T19:50:10.315Z,12.76
2022-11-12T19:52:56.561Z,12.59
2022-11-12T19:55:42.360Z,12.92
2022-11-12T19:58:28.517Z,12.98
2022-11-12T20:01:16.297Z,13.05
2022-11-12T20:04:02.297Z,12.67
2022-11-12T20:06:47.868Z,12.86
2022-11-12T20:09:34.203Z,12.73
2022-11-12T20:12:19.880Z,13.09
2022-11-12T20:15:06.355Z,12.81
2022-11-12T20:17:52.431Z,12.64
2022-11-12T20:20:38.043Z,12.82
2022-11-12T20:23:24.114Z,13.00
2022-11-12T20:26:11.253Z,13.02
2022-11-12T20:28:56.921Z,12.90
2022-11-12T20:31:42.637Z,12.96
2022-11-12T20:34:28.307Z,12.91
2022-11-12T20:37:14.076Z,12.99
2022-11-12T20:40:00.139Z,12.64
2022-11-12T20:42:50.640Z,12.60
2022-11-12T20:45:36.511Z,12.60
2022-11-12T20:48:22.488Z,12.82
2022-11-12T20:51:23.679Z,12.79
2022-11-12T20:54:10.621Z,12.91
2022-11-12T20:56:56.311Z,12.89
2022-11-12T20:59:41.987Z,13.02
2022-11-12T21:02:27.634Z,12.92
2022-11-12T21:05:13.476Z,12.72
2022-11-12T21:07:59.082Z,12.60
2022-11-12T21:10:48.909Z,12.65
2022-11-12T21:13:35.511Z,12.85
2022-11-12T21:16:21.408Z,12.50
2022-11-12T21:19:07.108Z,12.29
2022-11-12T21:21:53.337Z,12.12
2022-11-12T21:24:39.106Z,12.20
2022-11-12T21:27:25.175Z,12.32
2022-11-12T21:30:11.224Z,12.04
2022-11-12T21:32:57.065Z,11.94
2022-11-12T21:35:43.077Z,11.91
2022-11-12T21:38:29.564Z,11.81
2022-11-12T21:41:17.565Z,11.92
2022-11-12T21:44:03.558Z,11.33
2022-11-12T21:46:49.417Z,11.78
2022-11-12T21:49:35.386Z,11.72
2022-11-12T21:52:21.113Z,11.69
2022-11-12T21:55:07.484Z,11.44
2022-11-12T21:57:52.942Z,11.59
2022-11-12T22:00:41.888Z,11.75
2022-11-12T22:03:31.216Z,11.60
2022-11-12T22:06:17.254Z,11.73
2022-11-12T22:09:03.262Z,11.14
2022-11-12T22:11:48.905Z,10.92
2022-11-12T22:14:34.705Z,11.33
2022-11-12T22:17:20.623Z,10.85
2022-11-12T22:20:06.868Z,10.97
2022-11-12T22:22:52.594Z,11.24
2022-11-12T22:25:38.302Z,11.31
2022-11-12T22:28:24.266Z,11.04
2022-11-12T22:31:14.975Z,10.96
2022-11-12T22:34:01.545Z,10.79
2022-11-12T22:36:47.456Z,10.92
2022-11-12T22:39:33.311Z,10.35
2022-11-12T22:42:18.979Z,10.55
2022-11-12T22:45:04.926Z,11.07
2022-11-12T22:47:50.782Z,10.58
2022-11-12T22:50:36.689Z,11.08
2022-11-12T22:53:22.429Z,10.71
2022-11-12T22:56:10.269Z,10.60
2022-11-12T22:58:56.269Z,10.48
2022-11-12T23:01:42.199Z,10.69
2022-11-12T23:04:28.241Z,10.92
2022-11-12T23:07:14.011Z,10.59
2022-11-12T23:09:59.739Z,10.81
2022-11-12T23:12:45.343Z,11.04
2022-11-12T23:15:31.405Z,10.65
2022-11-12T23:18:17.318Z,10.81
2022-11-12T23:21:07.857Z,10.38
2022-11-12T23:23:53.695Z,10.71
2022-11-12T23:26:39.554Z,10.81
2022-11-12T23:29:25.156Z,10.85
2022-11-12T23:32:10.839Z,10.78
2022-11-12T23:34:56.485Z,10.69
2022-11-12T23:37:42.300Z,10.51
2022-11-12T23:40:31.072Z,10.78
2022-11-12T23:43:17.479Z,10.34
2022-11-12T23:46:03.248Z,10.26
2022-11-12T23:48:49.443Z,10.04
2022-11-12T23:51:35.369Z,10.08
2022-11-12T23:54:21.011Z,10.43
2022-11-12T23:57:06.838Z,10.35
2022-11-12T23:59:52.528Z,10.56
